createdAt,value
2019-03-30T00:02:52.152Z,88.50
2019-03-30T00:07:57.508Z,89.00
2019-03-30T00:13:02.950Z,89.90
2019-03-30T00:18:08.133Z,90.20
2019-03-30T00:23:13.569Z,90.50
2019-03-30T00:28:18.856Z,90.80
2019-03-30T00:33:23.767Z,91.10
2019-03-30T00:38:29.077Z,91.80
2019-03-30T00:43:34.328Z,92.30
2019-03-30T00:48:39.847Z,92.70
2019-03-30T00:53:45.194Z,93.50
2019-03-30T00:58:50.580Z,94.00
2019-03-30T01:03:56.435Z,94.40
2019-03-30T01:09:01.550Z,94.50
2019-03-30T01:14:07.078Z,94.80
2019-03-30T01:19:12.237Z,95.10
2019-03-30T01:24:17.529Z,95.70
2019-03-30T01:29:22.701Z,95.90
2019-03-30T01:34:28.411Z,96.40
2019-03-30T01:39:33.609Z,96.80
2019-03-30T01:44:38.922Z,97.20
2019-03-30T01:49:44.047Z,97.80
2019-03-30T01:54:49.489Z,97.80
2019-03-30T01:59:54.730Z,98.30
2019-03-30T02:05:00.637Z,98.80
2019-03-30T02:10:09.903Z,98.90
2019-03-30T02:15:16.182Z,99.20
2019-03-30T02:20:45.599Z,99.00
2019-03-30T02:25:50.857Z,98.80
2019-03-30T02:30:56.059Z,98.70
2019-03-30T02:36:01.568Z,98.60
2019-03-30T02:41:07.112Z,98.30
2019-03-30T02:46:13.116Z,98.10
2019-03-30T02:51:18.386Z,98.10
2019-03-30T02:56:23.509Z,98.30
2019-03-30T03:01:28.638Z,98.90
2019-03-30T03:06:34.021Z,99.00
2019-03-30T03:11:39.157Z,99.20
2019-03-30T03:16:44.472Z,99.60
2019-03-30T03:21:49.617Z,99.80
2019-03-30T03:26:54.806Z,99.90
2019-03-30T03:31:59.927Z,99.90
2019-03-30T03:37:04.984Z,99.90
2019-03-30T03:42:09.916Z,99.90
2019-03-30T03:47:15.083Z,99.90
2019-03-30T03:52:21.026Z,99.80
2019-03-30T03:57:45.571Z,99.80
2019-03-30T04:02:52.393Z,99.90
2019-03-30T04:07:59.273Z,99.90
2019-03-30T04:13:07.441Z,99.90
2019-03-30T04:18:13.604Z,99.90
2019-03-30T04:23:18.921Z,99.90
2019-03-30T04:28:24.033Z,99.90
2019-03-30T04:33:29.165Z,99.90
2019-03-30T04:38:34.133Z,99.90
2019-03-30T04:43:39.797Z,99.90
2019-03-30T04:48:44.915Z,99.90
2019-03-30T04:53:50.008Z,99.90
2019-03-30T04:58:55.103Z,99.90
2019-03-30T05:04:00.461Z,99.90
2019-03-30T05:09:06.876Z,99.90
2019-03-30T05:14:12.324Z,99.90
2019-03-30T05:19:17.553Z,99.90
2019-03-30T05:24:42.186Z,99.90
2019-03-30T05:29:47.533Z,99.90
2019-03-30T05:34:52.888Z,99.80
2019-03-30T05:40:17.286Z,99.70
2019-03-30T05:45:22.486Z,99.40
2019-03-30T05:50:27.782Z,99.10
2019-03-30T05:55:33.177Z,98.50
2019-03-30T06:00:39.161Z,98.20
2019-03-30T06:11:50.119Z,96.90
2019-03-30T06:17:05.080Z,96.60
2019-03-30T06:22:13.315Z,96.10
2019-03-30T06:27:19.061Z,95.90
2019-03-30T06:32:24.649Z,95.00
2019-03-30T06:37:36.040Z,95.20
2019-03-30T06:42:41.657Z,94.50
2019-03-30T06:47:47.448Z,94.50
2019-03-30T06:58:42.475Z,93.60
2019-03-30T07:04:07.189Z,92.40
2019-03-30T07:09:12.163Z,91.90
2019-03-30T07:14:17.452Z,91.70
2019-03-30T07:19:24.863Z,91.90
2019-03-30T07:24:30.218Z,91.70
2019-03-30T07:29:35.175Z,90.70
2019-03-30T07:34:41.817Z,90.50
2019-03-30T07:39:47.525Z,90.10
2019-03-30T07:44:52.881Z,89.90
2019-03-30T07:49:58.263Z,89.90
2019-03-30T07:55:03.717Z,88.90
2019-03-30T08:00:09.676Z,88.70
2019-03-30T08:05:15.397Z,88.30
2019-03-30T08:10:20.793Z,89.20
2019-03-30T08:15:26.160Z,89.30
2019-03-30T08:20:31.777Z,87.80
2019-03-30T08:25:36.692Z,86.60
2019-03-30T08:30:41.889Z,85.90
2019-03-30T08:35:46.999Z,86.10
2019-03-30T08:40:52.379Z,84.70
2019-03-30T08:45:57.397Z,83.30
2019-03-30T08:51:02.723Z,83.60
2019-03-30T08:56:07.878Z,83.20
2019-03-30T09:01:13.384Z,82.50
2019-03-30T09:06:18.734Z,82.00
2019-03-30T09:11:24.283Z,81.90
2019-03-30T09:16:29.838Z,82.60
2019-03-30T09:21:35.662Z,80.10
2019-03-30T09:26:41.347Z,80.90
2019-03-30T09:31:47.492Z,77.90
2019-03-30T09:36:53.482Z,77.10
2019-03-30T09:41:59.798Z,75.80
2019-03-30T09:47:06.756Z,76.30
2019-03-30T09:52:11.689Z,76.60
2019-03-30T09:57:17.538Z,76.20
2019-03-30T10:02:22.809Z,76.50
2019-03-30T10:07:27.767Z,74.00
2019-03-30T10:12:32.739Z,73.50
2019-03-30T10:17:38.228Z,72.80
2019-03-30T10:22:43.584Z,73.20
2019-03-30T10:27:48.865Z,73.60
2019-03-30T10:32:54.262Z,70.90
2019-03-30T10:37:59.630Z,72.40
2019-03-30T10:43:04.969Z,70.60
2019-03-30T10:48:09.990Z,70.60
2019-03-30T10:53:15.269Z,70.70
2019-03-30T10:58:20.404Z,67.60
2019-03-30T11:03:25.616Z,66.80
2019-03-30T11:08:30.606Z,65.50
2019-03-30T11:13:35.894Z,65.70
2019-03-30T11:18:41.103Z,65.70
2019-03-30T11:23:46.458Z,65.20
2019-03-30T11:28:51.727Z,63.80
2019-03-30T11:33:57.319Z,63.20
2019-03-30T11:39:02.894Z,62.30
2019-03-30T11:44:08.230Z,61.80
2019-03-30T11:49:13.574Z,63.90
2019-03-30T11:54:18.955Z,61.70
2019-03-30T11:59:23.976Z,61.10
2019-03-30T12:04:28.941Z,60.60
2019-03-30T12:09:33.963Z,61.00
2019-03-30T12:14:39.207Z,59.10
2019-03-30T12:19:44.410Z,59.50
2019-03-30T12:24:49.376Z,60.10
2019-03-30T12:29:54.447Z,60.20
2019-03-30T12:35:00.787Z,58.80
2019-03-30T12:40:07.078Z,58.90
2019-03-30T12:45:13.809Z,59.20
2019-03-30T12:50:19.247Z,60.00
2019-03-30T12:55:24.218Z,57.40
2019-03-30T13:00:29.273Z,56.50
2019-03-30T13:05:34.479Z,55.00
2019-03-30T13:10:39.892Z,56.50
2019-03-30T13:15:44.875Z,55.80
2019-03-30T13:20:49.795Z,54.50
2019-03-30T13:26:03.429Z,55.00
2019-03-30T13:31:01.483Z,54.80
2019-03-30T13:36:10.613Z,54.20
2019-03-30T13:41:15.070Z,54.30
2019-03-30T13:46:20.451Z,53.60
2019-03-30T13:51:25.682Z,53.50
2019-03-30T13:56:30.738Z,54.80
2019-03-30T14:01:36.131Z,53.60
2019-03-30T14:06:41.458Z,54.40
2019-03-30T14:11:46.822Z,55.70
2019-03-30T14:16:52.114Z,56.80
2019-03-30T14:21:57.104Z,56.30
2019-03-30T14:27:02.277Z,55.50
2019-03-30T14:32:07.870Z,56.40
2019-03-30T14:37:12.784Z,56.40
2019-03-30T14:42:18.193Z,56.10
2019-03-30T14:47:23.661Z,56.20
2019-03-30T14:52:28.906Z,57.20
2019-03-30T14:57:34.110Z,56.50
2019-03-30T15:02:39.373Z,57.10
2019-03-30T15:07:44.674Z,57.20
2019-03-30T15:12:50.000Z,57.60
2019-03-30T15:17:55.569Z,58.20
2019-03-30T15:23:00.842Z,57.30
2019-03-30T15:28:06.215Z,55.50
2019-03-30T15:33:11.505Z,53.40
2019-03-30T15:38:16.972Z,52.10
2019-03-30T15:43:22.325Z,52.80
2019-03-30T15:48:28.273Z,52.60
2019-03-30T15:53:33.941Z,53.60
2019-03-30T15:58:38.837Z,53.70
2019-03-30T16:03:43.843Z,58.20
2019-03-30T16:08:49.499Z,59.00
2019-03-30T16:13:54.928Z,60.00
2019-03-30T16:19:00.238Z,60.30
2019-03-30T16:24:05.470Z,61.00
2019-03-30T16:29:10.794Z,62.10
2019-03-30T16:34:16.186Z,62.50
2019-03-30T16:39:21.428Z,63.40
2019-03-30T16:44:26.424Z,63.70
2019-03-30T16:49:31.697Z,63.10
2019-03-30T16:54:36.863Z,63.70
2019-03-30T16:59:41.912Z,65.80
2019-03-30T17:04:47.156Z,67.10
2019-03-30T17:09:52.426Z,68.20
2019-03-30T17:14:57.479Z,69.00
2019-03-30T17:20:02.789Z,70.10
2019-03-30T17:25:08.064Z,71.20
2019-03-30T17:30:13.673Z,72.40
2019-03-30T17:35:19.735Z,73.40
2019-03-30T17:40:25.079Z,74.10
2019-03-30T17:45:30.472Z,74.90
2019-03-30T17:50:35.746Z,75.60
2019-03-30T17:55:46.636Z,76.50
2019-03-30T18:00:52.195Z,76.70
2019-03-30T18:05:57.246Z,76.90
2019-03-30T18:11:04.253Z,77.40
2019-03-30T18:16:10.063Z,78.10
2019-03-30T18:21:15.385Z,78.40
2019-03-30T18:26:20.731Z,78.60
2019-03-30T18:31:28.987Z,78.80
2019-03-30T18:36:35.802Z,79.30
2019-03-30T18:41:40.999Z,80.10
2019-03-30T18:46:46.006Z,80.50
2019-03-30T18:51:50.980Z,80.80
2019-03-30T18:56:56.407Z,81.20
2019-03-30T19:02:01.825Z,81.90
2019-03-30T19:07:07.474Z,82.40
2019-03-30T19:12:13.018Z,83.40
2019-03-30T19:17:18.769Z,84.30
2019-03-30T19:22:23.779Z,85.50
2019-03-30T19:27:29.063Z,87.60
2019-03-30T19:32:34.560Z,88.80
2019-03-30T19:37:39.898Z,90.60
2019-03-30T19:42:45.230Z,91.20
2019-03-30T19:47:50.555Z,91.70
2019-03-30T19:52:55.831Z,92.30
2019-03-30T19:58:01.088Z,92.80
2019-03-30T20:03:07.546Z,93.40
2019-03-30T20:08:12.930Z,93.50
2019-03-30T20:13:18.714Z,93.80
2019-03-30T20:18:24.328Z,94.40
2019-03-30T20:23:29.874Z,94.70
2019-03-30T20:28:35.051Z,94.80
2019-03-30T20:33:40.356Z,94.70
2019-03-30T20:38:45.421Z,94.90
2019-03-30T20:43:50.363Z,94.90
2019-03-30T20:48:55.613Z,95.20
2019-03-30T20:54:00.889Z,95.50
2019-03-30T20:59:05.905Z,95.40
2019-03-30T21:04:14.267Z,95.00
2019-03-30T21:09:19.643Z,95.10
2019-03-30T21:14:24.980Z,95.60
2019-03-30T21:19:30.251Z,95.90
2019-03-30T21:24:35.220Z,96.70
2019-03-30T21:29:53.995Z,97.10
2019-03-30T21:34:47.326Z,97.50
2019-03-30T21:40:11.965Z,98.30
2019-03-30T21:45:17.230Z,98.30
2019-03-30T21:50:22.499Z,98.20
2019-03-30T21:55:27.849Z,98.20
2019-03-30T22:00:37.910Z,98.50
2019-03-30T22:05:43.122Z,98.60
2019-03-30T22:10:48.193Z,98.80
2019-03-30T22:15:53.360Z,98.90
2019-03-30T22:21:00.008Z,99.10
2019-03-30T22:26:05.337Z,99.40
2019-03-30T22:31:10.656Z,99.40
2019-03-30T22:36:16.243Z,99.40
2019-03-30T22:41:21.603Z,99.70
2019-03-30T22:46:26.880Z,99.50
2019-03-30T22:51:32.298Z,99.30
2019-03-30T22:56:37.619Z,99.50
2019-03-30T23:01:42.986Z,99.50
2019-03-30T23:06:48.361Z,99.70
2019-03-30T23:11:53.667Z,99.80
2019-03-30T23:16:59.016Z,99.90
2019-03-30T23:22:04.143Z,99.90
2019-03-30T23:27:09.405Z,99.90
2019-03-30T23:32:14.754Z,99.90
2019-03-30T23:37:20.063Z,99.90
2019-03-30T23:42:25.469Z,99.90
2019-03-30T23:47:42.365Z,99.90
2019-03-30T23:52:47.678Z,99.90
2019-03-30T23:57:53.091Z,99.90
